Time;durP1;ratioP1;P1;durP2;ratioP2;P2;SDS_P1;SDS_P2;PMS_P1;PMS_P2;Temp;Humidity;BMP_temperature;BMP_pressure;BME280_temperature;BME280_humidity;BME280_pressure;Samples;Min_cycle;Max_cycle;Signal;HPM_P1;HPM_P2
2022/12/21 00:00:15;;;;;;;9.85;5.50;;;;;;;2.65;100.00;95816.22;1029666;28;20030;-69
2022/12/21 00:00:45;;;;;;;6.47;5.25;;;;;;;2.60;100.00;95815.06;1029685;28;20680;-69
2022/12/21 00:01:30;;;;;;;10.60;5.68;;;;;;;2.47;100.00;95804.78;1029775;28;20014;-69
2022/12/21 00:02:00;;;;;;;7.47;5.00;;;;;;;2.51;100.00;95816.31;1029725;28;20061;-67
2022/12/21 00:02:33;;;;;;;9.32;5.45;;;;;;;2.52;100.00;95815.34;1029979;28;20312;-69
2022/12/21 00:03:04;;;;;;;9.52;5.38;;;;;;;2.49;100.00;95807.97;1021986;29;20026;-70
2022/12/21 00:03:34;;;;;;;8.60;5.32;;;;;;;2.50;100.00;95809.56;1025788;28;20281;-69
2022/12/21 00:04:05;;;;;;;9.23;5.07;;;;;;;2.45;100.00;95801.63;1025993;28;20055;-68
2022/12/21 00:04:35;;;;;;;8.32;5.22;;;;;;;2.50;100.00;95796.59;1022075;29;20022;-69
2022/12/21 00:05:07;;;;;;;6.88;4.38;;;;;;;2.57;100.00;95802.53;1025939;28;20038;-68
2022/12/21 00:05:37;;;;;;;7.88;4.63;;;;;;;2.61;100.00;95810.69;1024998;28;20014;-70
2022/12/21 00:06:08;;;;;;;6.65;4.65;;;;;;;2.56;100.00;95800.94;1025770;28;20266;-68
2022/12/21 00:06:38;;;;;;;8.85;4.75;;;;;;;2.59;100.00;95800.53;1029232;28;20122;-69
2022/12/21 00:07:11;;;;;;;6.82;4.18;;;;;;;2.75;100.00;95806.19;1024162;28;20015;-69
2022/12/21 00:07:41;;;;;;;8.70;4.32;;;;;;;2.74;100.00;95800.22;1026270;28;20010;-69
2022/12/21 00:08:12;;;;;;;7.43;4.20;;;;;;;2.74;100.00;95794.25;1025811;28;20262;-71
2022/12/21 00:08:44;;;;;;;8.15;4.65;;;;;;;2.76;100.00;95792.25;1027046;28;20019;-68
2022/12/21 00:09:15;;;;;;;9.27;4.22;;;;;;;2.80;100.00;95793.41;1034751;28;20025;-69
2022/12/21 00:09:45;;;;;;;7.10;4.55;;;;;;;2.73;100.00;95797.84;1029700;28;20265;-69
2022/12/21 00:10:16;;;;;;;6.50;4.15;;;;;;;2.77;100.00;95796.41;1033819;28;20100;-68
2022/12/21 00:10:46;;;;;;;8.15;4.22;;;;;;;2.74;100.00;95789.06;1029768;28;20042;-70
2022/12/21 00:11:17;;;;;;;6.13;4.10;;;;;;;2.74;100.00;95794.25;1034280;28;20030;-68
2022/12/21 00:11:47;;;;;;;7.18;4.00;;;;;;;2.84;100.00;95794.56;1033657;28;20037;-70
2022/12/21 00:12:18;;;;;;;5.63;3.80;;;;;;;2.87;100.00;95796.72;1033622;28;20018;-70
2022/12/21 00:12:48;;;;;;;7.68;4.00;;;;;;;2.90;100.00;95798.09;1034151;28;20033;-69
2022/12/21 00:13:19;;;;;;;5.60;3.63;;;;;;;2.84;100.00;95794.56;1034040;28;20018;-68
2022/12/21 00:13:49;;;;;;;5.53;3.50;;;;;;;2.82;100.00;95791.41;1033754;28;20029;-68
2022/12/21 00:14:20;;;;;;;7.82;3.95;;;;;;;2.80;100.00;95786.41;1021866;28;20015;-68
2022/12/21 00:14:50;;;;;;;4.63;3.17;;;;;;;2.76;100.00;95787.06;1026035;28;20023;-69
2022/12/21 00:15:21;;;;;;;5.28;3.45;;;;;;;2.82;100.00;95783.63;1018224;29;20023;-68
2022/12/21 00:16:10;;;;;;;5.75;3.85;;;;;;;2.78;100.00;95777.25;1017451;28;20011;-69
2022/12/21 00:16:41;;;;;;;6.85;3.42;;;;;;;2.81;100.00;95782.03;1021811;28;20416;-70
2022/12/21 00:17:11;;;;;;;7.10;4.00;;;;;;;2.81;100.00;95787.22;1021798;29;20267;-71
2022/12/21 00:17:41;;;;;;;6.43;3.78;;;;;;;2.77;100.00;95780.88;1021943;29;20082;-68
2022/12/21 00:18:12;;;;;;;7.03;3.70;;;;;;;2.84;100.00;95787.56;1027150;28;20034;-68
2022/12/21 00:18:42;;;;;;;6.45;3.53;;;;;;;2.83;100.00;95780.03;1029854;28;20097;-69
2022/12/21 00:19:14;;;;;;;8.68;3.83;;;;;;;2.92;100.00;95790.91;1025926;28;20054;-69
2022/12/21 00:19:44;;;;;;;8.25;4.00;;;;;;;2.87;100.00;95782.97;1022102;28;20550;-68
2022/12/21 00:20:15;;;;;;;6.78;3.95;;;;;;;3.13;100.00;95797.50;1025916;28;20251;-69
2022/12/21 00:20:55;;;;;;;6.80;3.25;;;;;;;3.15;100.00;95792.88;1025674;28;20029;-68
2022/12/21 00:21:27;;;;;;;4.82;3.05;;;;;;;3.31;100.00;95790.53;1021772;29;20114;-70
2022/12/21 00:21:58;;;;;;;5.93;3.50;;;;;;;3.27;100.00;95799.75;1021952;29;20042;-69
2022/12/21 00:22:28;;;;;;;8.70;3.78;;;;;;;3.30;100.00;95798.53;1021834;29;20764;-69
2022/12/21 00:22:59;;;;;;;5.47;2.70;;;;;;;3.43;100.00;95802.81;1022183;28;20012;-68
2022/12/21 00:23:29;;;;;;;4.68;2.75;;;;;;;3.50;100.00;95798.31;1029999;28;20034;-70
2022/12/21 00:24:00;;;;;;;6.32;3.42;;;;;;;3.55;100.00;95798.47;1029944;28;20073;-71
2022/12/21 00:24:32;;;;;;;5.38;3.10;;;;;;;3.49;100.00;95802.72;1033860;28;20415;-69
2022/12/21 00:25:02;;;;;;;5.10;3.10;;;;;;;3.55;100.00;95806.25;1029835;28;20360;-68
2022/12/21 00:25:34;;;;;;;5.57;3.38;;;;;;;3.66;100.00;95799.56;1029755;28;20727;-68
2022/12/21 00:26:05;;;;;;;5.13;3.10;;;;;;;3.63;100.00;95803.38;1029678;28;20429;-68
2022/12/21 00:26:36;;;;;;;3.80;2.70;;;;;;;3.64;100.00;95798.97;1026687;28;20898;-69
2022/12/21 00:27:07;;;;;;;6.25;2.92;;;;;;;3.83;100.00;95797.16;1033761;28;20021;-71
2022/12/21 00:27:37;;;;;;;5.32;2.78;;;;;;;3.84;100.00;95806.53;1034413;28;20273;-69
2022/12/21 00:28:08;;;;;;;5.78;3.08;;;;;;;3.84;100.00;95807.31;1038212;28;20026;-70
2022/12/21 00:28:38;;;;;;;4.75;2.95;;;;;;;3.81;100.00;95794.78;1034024;28;20579;-69
2022/12/21 00:29:09;;;;;;;6.25;2.88;;;;;;;3.93;100.00;95792.25;1034396;28;20086;-69
2022/12/21 00:29:39;;;;;;;5.30;2.67;;;;;;;4.01;100.00;95797.91;1025989;28;20626;-69
2022/12/21 00:30:10;;;;;;;4.45;2.50;;;;;;;4.05;100.00;95794.88;1026005;28;20042;-70
2022/12/21 00:30:41;;;;;;;3.83;2.90;;;;;;;3.92;100.00;95807.03;1026171;28;20161;-66
2022/12/21 00:31:13;;;;;;;7.88;3.08;;;;;;;3.93;100.00;95811.22;1026064;28;20329;-70
2022/12/21 00:31:43;;;;;;;5.38;3.17;;;;;;;4.08;100.00;95800.44;1030360;28;20026;-69
2022/12/21 00:32:14;;;;;;;4.22;2.92;;;;;;;4.17;100.00;95798.31;1026035;28;20278;-68
2022/12/21 00:32:44;;;;;;;5.95;3.08;;;;;;;4.09;100.00;95796.84;1026096;28;20026;-69
2022/12/21 00:33:14;;;;;;;4.63;3.33;;;;;;;4.02;100.00;95790.91;1021891;28;20074;-68
2022/12/21 00:33:45;;;;;;;6.93;3.17;;;;;;;3.92;100.00;95796.66;1026073;28;20022;-69
2022/12/21 00:34:19;;;;;;;5.75;3.30;;;;;;;3.87;100.00;95804.28;1034208;28;20018;-69
2022/12/21 00:34:49;;;;;;;4.30;3.10;;;;;;;3.77;100.00;95804.81;1036118;28;20034;-69
2022/12/21 00:35:20;;;;;;;7.30;3.80;;;;;;;3.61;100.00;95789.03;1036863;28;20300;-71
2022/12/21 00:35:50;;;;;;;5.65;3.25;;;;;;;3.66;100.00;95796.97;1025837;28;20062;-71
2022/12/21 00:36:22;;;;;;;6.10;3.47;;;;;;;3.62;100.00;95806.16;1030213;28;20082;-69
2022/12/21 00:36:52;;;;;;;5.80;3.85;;;;;;;3.60;100.00;95800.41;1030312;28;20512;-69
2022/12/21 00:37:23;;;;;;;6.25;3.97;;;;;;;3.51;100.00;95800.69;1029803;28;20281;-68
2022/12/21 00:37:53;;;;;;;7.10;3.80;;;;;;;3.43;100.00;95793.22;1025915;28;20026;-70
2022/12/21 00:38:24;;;;;;;5.93;3.55;;;;;;;3.39;100.00;95797.25;1025823;28;20038;-70
2022/12/21 00:38:55;;;;;;;8.48;3.88;;;;;;;3.38;100.00;95800.84;1026146;28;20038;-70
2022/12/21 00:39:25;;;;;;;5.88;3.92;;;;;;;3.32;100.00;95801.72;1026040;28;20086;-71
2022/12/21 00:39:55;;;;;;;5.60;3.85;;;;;;;3.28;100.00;95806.50;1029628;28;20789;-69
2022/12/21 00:40:26;;;;;;;5.55;3.72;;;;;;;3.26;100.00;95808.53;1029901;28;20030;-69
2022/12/21 00:40:58;;;;;;;5.68;3.95;;;;;;;3.21;100.00;95803.19;1024621;28;20027;-71
2022/12/21 00:41:28;;;;;;;8.90;4.13;;;;;;;3.16;100.00;95808.25;1017635;29;20028;-69
2022/12/21 00:41:59;;;;;;;6.88;4.20;;;;;;;3.08;100.00;95800.72;1022069;29;20269;-69
2022/12/21 00:42:30;;;;;;;5.05;4.05;;;;;;;3.06;100.00;95808.72;1022005;29;20024;-71
2022/12/21 00:43:00;;;;;;;6.90;4.10;;;;;;;3.07;100.00;95810.31;1025969;28;20030;-69
2022/12/21 00:43:32;;;;;;;7.43;4.80;;;;;;;3.02;100.00;95796.41;1029751;28;20030;-69
2022/12/21 00:44:02;;;;;;;7.00;4.18;;;;;;;3.02;100.00;95796.41;1030484;28;20026;-69
2022/12/21 00:44:33;;;;;;;9.00;4.85;;;;;;;3.00;100.00;95803.59;1026428;28;20280;-71
2022/12/21 00:45:04;;;;;;;7.07;4.30;;;;;;;2.96;100.00;95808.41;1028711;28;20030;-69
2022/12/21 00:45:35;;;;;;;7.70;4.03;;;;;;;2.97;100.00;95809.22;1030019;28;20565;-69
2022/12/21 00:46:05;;;;;;;5.35;4.20;;;;;;;2.86;100.00;95805.50;1030971;28;20265;-70
2022/12/21 00:46:36;;;;;;;6.35;4.30;;;;;;;2.84;100.00;95805.72;1034775;28;20498;-69
2022/12/21 00:47:06;;;;;;;9.25;4.75;;;;;;;2.81;100.00;95810.53;1030577;28;20038;-68
2022/12/21 00:47:37;;;;;;;6.90;4.57;;;;;;;2.78;100.00;95805.75;1030523;28;20105;-70
2022/12/21 00:48:08;;;;;;;9.52;4.75;;;;;;;2.75;100.00;95808.78;1026079;28;20030;-69
2022/12/21 00:48:38;;;;;;;7.10;4.22;;;;;;;2.75;100.00;95816.53;1026604;28;20026;-69
2022/12/21 00:49:09;;;;;;;6.95;4.57;;;;;;;2.73;100.00;95818.56;1030578;28;20512;-69
2022/12/21 00:49:39;;;;;;;7.70;4.32;;;;;;;2.71;100.00;95816.19;1015677;29;20020;-69
2022/12/21 00:50:10;;;;;;;5.47;4.32;;;;;;;2.86;100.00;95817.69;1021106;28;20023;-69
2022/12/21 00:50:40;;;;;;;6.68;4.40;;;;;;;2.79;100.00;95807.38;1022534;29;20532;-70
2022/12/21 00:51:13;;;;;;;6.10;3.58;;;;;;;2.86;100.00;95815.09;1019038;28;20553;-69
2022/12/21 00:51:43;;;;;;;5.50;3.63;;;;;;;2.88;100.00;95816.44;1024786;28;20589;-69
2022/12/21 00:52:14;;;;;;;7.13;4.00;;;;;;;2.87;100.00;95827.81;1026734;28;20274;-69
2022/12/21 00:52:45;;;;;;;6.68;4.05;;;;;;;2.84;100.00;95810.09;1026461;28;20034;-69
2022/12/21 00:53:15;;;;;;;8.98;4.38;;;;;;;2.84;100.00;95820.47;1022577;29;20625;-69
2022/12/21 00:53:46;;;;;;;5.68;3.97;;;;;;;2.83;100.00;95813.72;1026463;28;20037;-68
2022/12/21 00:54:17;;;;;;;6.28;3.65;;;;;;;2.86;100.00;95817.69;1030457;28;20132;-69
2022/12/21 00:54:47;;;;;;;5.60;4.13;;;;;;;2.84;100.00;95810.91;1026603;28;20023;-71
2022/12/21 00:55:18;;;;;;;8.70;3.90;;;;;;;2.89;100.00;95828.41;1026369;28;20034;-70
2022/12/21 00:55:58;;;;;;;10.25;4.13;;;;;;;2.92;100.00;95827.19;1025662;28;20041;-69
2022/12/21 00:56:28;;;;;;;6.05;3.53;;;;;;;2.87;100.00;95817.47;1026824;28;20030;-69
2022/12/21 00:56:59;;;;;;;5.85;3.90;;;;;;;2.91;100.00;95821.22;1030539;28;20238;-71
2022/12/21 00:57:29;;;;;;;6.40;3.60;;;;;;;3.02;100.00;95817.94;1031702;28;20496;-71
2022/12/21 00:58:00;;;;;;;6.32;3.90;;;;;;;3.00;100.00;95814.75;1034458;28;20076;-69
2022/12/21 00:58:30;;;;;;;5.57;3.17;;;;;;;3.14;100.00;95818.03;1030487;28;20101;-69
2022/12/21 00:59:01;;;;;;;4.88;3.13;;;;;;;3.52;100.00;95812.69;1022717;29;20019;-69
2022/12/21 00:59:32;;;;;;;6.07;3.65;;;;;;;3.41;100.00;95818.56;1022601;29;20026;-70
2022/12/21 01:00:03;;;;;;;6.53;2.85;;;;;;;3.40;100.00;95826.56;1022662;28;20921;-69
2022/12/21 01:00:34;;;;;;;6.05;3.20;;;;;;;3.42;100.00;95809.78;1027080;28;20038;-69
2022/12/21 01:01:08;;;;;;;7.32;3.17;;;;;;;3.51;100.00;95818.84;1030576;28;20256;-69
2022/12/21 01:01:39;;;;;;;5.55;3.25;;;;;;;3.46;100.00;95818.72;1027580;28;20011;-70
2022/12/21 01:02:09;;;;;;;4.35;2.80;;;;;;;3.46;100.00;95821.31;1022331;29;20637;-69
2022/12/21 01:02:39;;;;;;;3.35;2.40;;;;;;;3.52;100.00;95823.06;1018988;29;20024;-72
2022/12/21 01:03:10;;;;;;;4.53;2.50;;;;;;;3.57;100.00;95819.00;1022876;28;20030;-71
2022/12/21 01:03:41;;;;;;;4.38;2.50;;;;;;;3.57;100.00;95825.00;1026483;28;20022;-67
2022/12/21 01:04:11;;;;;;;4.53;2.60;;;;;;;3.52;100.00;95817.03;1030710;28;20076;-70
2022/12/21 01:04:41;;;;;;;4.38;2.90;;;;;;;3.59;100.00;95822.97;1026358;28;20022;-70
2022/12/21 01:05:12;;;;;;;5.07;2.75;;;;;;;3.62;100.00;95819.13;1026647;28;20077;-71
2022/12/21 01:05:48;;;;;;;3.42;2.40;;;;;;;3.71;100.00;95820.44;1030055;28;20014;-70
2022/12/21 01:06:37;;;;;;;5.28;3.20;;;;;;;3.82;100.00;95817.13;1031709;28;20022;-69
2022/12/21 01:07:07;;;;;;;5.40;3.10;;;;;;;3.72;100.00;95806.44;1030570;28;20381;-69
2022/12/21 01:07:38;;;;;;;5.28;2.78;;;;;;;3.72;100.00;95816.84;1034490;28;20662;-70
2022/12/21 01:08:08;;;;;;;8.38;3.08;;;;;;;3.70;100.00;95814.47;1032061;28;20110;-69
2022/12/21 01:08:39;;;;;;;5.20;3.42;;;;;;;3.75;100.00;95814.59;1030331;28;20018;-69
2022/12/21 01:09:10;;;;;;;4.63;2.60;;;;;;;3.75;100.00;95816.41;1026588;28;20067;-69
2022/12/21 01:09:40;;;;;;;6.15;2.90;;;;;;;3.76;100.00;95818.00;1026469;28;20109;-69
2022/12/21 01:10:10;;;;;;;4.75;2.53;;;;;;;3.82;100.00;95819.72;1026893;28;20053;-70
2022/12/21 01:10:41;;;;;;;3.50;2.33;;;;;;;3.95;100.00;95816.97;1026088;28;20524;-69
2022/12/21 01:11:12;;;;;;;3.60;2.40;;;;;;;3.89;100.00;95811.84;1030908;28;20030;-69
2022/12/21 01:11:43;;;;;;;5.82;2.80;;;;;;;4.00;100.00;95809.31;1026403;28;20023;-69
2022/12/21 01:12:13;;;;;;;4.07;2.28;;;;;;;3.96;100.00;95797.78;1024542;28;20266;-69
2022/12/21 01:12:44;;;;;;;3.53;2.17;;;;;;;4.07;100.00;95803.25;1026607;28;20022;-69
2022/12/21 01:13:14;;;;;;;4.63;2.55;;;;;;;4.22;100.00;95803.63;1030804;28;20435;-69
2022/12/21 01:13:45;;;;;;;2.92;1.75;;;;;;;4.31;100.00;95799.72;1022533;28;20393;-69
2022/12/21 01:14:19;;;;;;;4.95;2.63;;;;;;;4.17;100.00;95799.13;1022964;28;20076;-70
2022/12/21 01:14:49;;;;;;;4.22;2.50;;;;;;;4.13;100.00;95794.59;1022198;29;20771;-69
2022/12/21 01:15:20;;;;;;;4.53;2.20;;;;;;;4.10;100.00;95792.44;1026759;28;20262;-71
2022/12/21 01:15:53;;;;;;;3.90;2.50;;;;;;;4.07;100.00;95798.06;1030088;28;20530;-70
2022/12/21 01:16:30;;;;;;;2.88;2.22;;;;;;;3.98;100.00;95807.94;1035051;28;20014;-69
2022/12/21 01:17:01;;;;;;;3.10;2.28;;;;;;;3.98;100.00;95813.94;1034667;28;20277;-67
2022/12/21 01:17:31;;;;;;;2.10;1.88;;;;;;;4.15;100.00;95816.72;1027719;28;20274;-71
2022/12/21 01:18:02;;;;;;;2.53;2.05;;;;;;;4.10;100.00;95816.59;1022731;29;20087;-71
2022/12/21 01:18:32;;;;;;;4.20;1.90;;;;;;;4.29;100.00;95825.13;1022511;29;20028;-70
2022/12/21 01:19:03;;;;;;;3.92;2.30;;;;;;;4.34;100.00;95819.28;1022254;29;20023;-69
2022/12/21 01:19:34;;;;;;;4.50;2.60;;;;;;;4.33;100.00;95818.50;1026651;28;20027;-68
2022/12/21 01:20:05;;;;;;;3.88;2.15;;;;;;;4.35;100.00;95819.03;1030487;28;20022;-68
2022/12/21 01:20:43;;;;;;;3.17;2.40;;;;;;;4.33;100.00;95808.09;1031149;28;20659;-70
2022/12/21 01:21:21;;;;;;;3.30;1.80;;;;;;;4.23;100.00;95810.44;1034460;28;20347;-69
2022/12/21 01:21:51;;;;;;;6.32;2.58;;;;;;;4.25;100.00;95811.78;1026663;28;20262;-69
2022/12/21 01:22:22;;;;;;;3.90;2.13;;;;;;;4.19;100.00;95812.69;1022755;29;20761;-70
2022/12/21 01:22:52;;;;;;;3.70;2.45;;;;;;;4.12;100.00;95805.97;1023520;28;20042;-69
2022/12/21 01:23:23;;;;;;;3.78;2.20;;;;;;;4.10;100.00;95811.41;1026372;28;20022;-70
2022/12/21 01:23:54;;;;;;;3.50;2.10;;;;;;;4.24;100.00;95809.41;1028594;28;20019;-71
2022/12/21 01:24:25;;;;;;;3.25;2.17;;;;;;;4.27;100.00;95808.97;1027364;28;20026;-71
2022/12/21 01:24:55;;;;;;;2.97;2.10;;;;;;;4.22;100.00;95821.81;1027364;28;20393;-70
2022/12/21 01:25:26;;;;;;;4.03;2.38;;;;;;;4.17;100.00;95808.72;1030771;28;20368;-70
2022/12/21 01:25:56;;;;;;;5.05;1.92;;;;;;;4.19;100.00;95807.50;1026179;28;20472;-70
2022/12/21 01:26:27;;;;;;;2.97;2.15;;;;;;;4.15;100.00;95805.53;1031217;28;20022;-71
2022/12/21 01:26:57;;;;;;;3.55;2.22;;;;;;;4.14;100.00;95803.97;1031140;28;20048;-72
2022/12/21 01:27:28;;;;;;;3.40;2.10;;;;;;;4.12;100.00;95805.97;1030492;28;20019;-71
2022/12/21 01:27:59;;;;;;;3.20;2.25;;;;;;;4.07;100.00;95804.03;1037109;28;20029;-70
2022/12/21 01:28:29;;;;;;;4.05;2.50;;;;;;;4.09;100.00;95806.41;1032834;28;20015;-71
2022/12/21 01:29:00;;;;;;;2.55;2.15;;;;;;;4.09;100.00;95801.22;1025043;28;20298;-70
2022/12/21 01:29:30;;;;;;;4.47;2.22;;;;;;;4.01;100.00;95799.72;1029018;28;20054;-70
2022/12/21 01:30:01;;;;;;;3.53;2.30;;;;;;;4.01;100.00;95803.09;1029366;28;20348;-72
2022/12/21 01:30:32;;;;;;;4.38;2.22;;;;;;;3.99;100.00;95806.94;1033049;28;20026;-71
2022/12/21 01:31:02;;;;;;;2.97;2.13;;;;;;;3.94;100.00;95810.19;1036095;28;20272;-72
2022/12/21 01:31:33;;;;;;;5.30;1.85;;;;;;;3.84;100.00;95796.16;1029151;28;20119;-72
2022/12/21 01:32:04;;;;;;;6.03;2.67;;;;;;;3.86;100.00;95807.91;1029520;28;20014;-72
2022/12/21 01:32:34;;;;;;;3.80;2.25;;;;;;;3.81;100.00;95810.34;1030288;28;20119;-70
2022/12/21 01:33:06;;;;;;;3.47;2.50;;;;;;;3.77;100.00;95807.41;1030287;28;20030;-70
2022/12/21 01:33:36;;;;;;;3.90;2.42;;;;;;;3.78;100.00;95810.78;1022799;28;20016;-69
2022/12/21 01:34:07;;;;;;;7.28;2.80;;;;;;;3.76;100.00;95802.44;1026627;28;20298;-70
2022/12/21 01:34:37;;;;;;;5.43;2.58;;;;;;;3.71;100.00;95810.06;1032081;28;20014;-72
2022/12/21 01:35:08;;;;;;;3.63;2.38;;;;;;;3.70;100.00;95813.69;1030562;28;20051;-70
2022/12/21 01:35:40;;;;;;;3.97;2.40;;;;;;;3.66;100.00;95810.72;1021625;29;20512;-70
2022/12/21 01:36:13;;;;;;;4.80;2.50;;;;;;;3.67;100.00;95814.91;1023221;28;20019;-69
2022/12/21 01:36:43;;;;;;;4.10;2.72;;;;;;;3.64;100.00;95809.34;1022121;29;20270;-72
2022/12/21 01:37:13;;;;;;;2.90;2.00;;;;;;;3.59;100.00;95801.41;1030632;28;20277;-69
2022/12/21 01:37:44;;;;;;;4.72;2.47;;;;;;;3.63;100.00;95808.56;1029912;28;20023;-70
2022/12/21 01:38:14;;;;;;;3.40;2.47;;;;;;;3.72;100.00;95809.03;1030071;28;20101;-70
2022/12/21 01:38:45;;;;;;;3.30;2.60;;;;;;;3.67;100.00;95809.72;1022552;28;20039;-70
2022/12/21 01:39:16;;;;;;;6.55;2.42;;;;;;;3.62;100.00;95808.75;1022471;29;20031;-70
2022/12/21 01:39:46;;;;;;;4.07;3.00;;;;;;;3.61;100.00;95805.38;1022168;28;20616;-69
2022/12/21 01:40:17;;;;;;;4.63;2.40;;;;;;;3.59;100.00;95806.59;1022836;28;20706;-69
2022/12/21 01:40:47;;;;;;;3.85;2.35;;;;;;;3.54;100.00;95810.63;1021368;29;20027;-70
2022/12/21 01:41:25;;;;;;;3.42;2.33;;;;;;;3.49;100.00;95796.75;1025480;28;20029;-69
2022/12/21 01:41:55;;;;;;;4.93;2.95;;;;;;;3.51;100.00;95803.28;1026138;28;20026;-70
2022/12/21 01:42:26;;;;;;;3.65;2.45;;;;;;;3.48;100.00;95806.31;1022398;29;20712;-71
2022/12/21 01:42:56;;;;;;;3.47;2.63;;;;;;;3.43;100.00;95795.03;1023497;28;20019;-69
2022/12/21 01:43:46;;;;;;;6.38;2.92;;;;;;;3.43;100.00;95801.00;1022318;28;20476;-69
2022/12/21 01:44:53;;;;;;;3.63;2.60;;;;;;;3.42;100.00;95801.19;1027736;28;20023;-71
2022/12/21 01:45:29;;;;;;;4.53;2.60;;;;;;;3.33;100.00;95799.91;1033970;28;20269;-70
2022/12/21 01:46:00;;;;;;;3.85;2.67;;;;;;;3.27;100.00;95793.78;1033077;28;20403;-68
2022/12/21 01:46:39;;;;;;;4.60;3.03;;;;;;;3.22;100.00;95789.25;1026301;28;20269;-69
2022/12/21 01:47:12;;;;;;;7.50;2.97;;;;;;;3.10;100.00;95784.97;1022347;29;20027;-70
2022/12/21 01:47:57;;;;;;;4.15;2.92;;;;;;;3.09;100.00;95797.16;1022318;29;20269;-70
2022/12/21 01:48:27;;;;;;;4.07;2.72;;;;;;;2.99;100.00;95784.66;1025676;28;20353;-71
2022/12/21 01:49:00;;;;;;;4.13;2.40;;;;;;;3.00;100.00;95799.22;1022347;29;20301;-72
2022/12/21 01:49:31;;;;;;;4.38;2.78;;;;;;;2.99;100.00;95796.84;1027070;28;20094;-70
2022/12/21 01:50:08;;;;;;;4.50;2.42;;;;;;;2.92;100.00;95790.91;1021367;29;20371;-69
2022/12/21 01:50:41;;;;;;;5.40;2.67;;;;;;;2.91;100.00;95797.88;1023762;28;20019;-70
2022/12/21 01:51:12;;;;;;;4.97;2.60;;;;;;;2.82;100.00;95796.59;1022545;29;20325;-70
2022/12/21 01:51:43;;;;;;;6.13;3.20;;;;;;;2.84;100.00;95795.34;1019243;29;20263;-69
2022/12/21 01:52:14;;;;;;;7.75;2.85;;;;;;;2.76;100.00;95782.66;1022314;29;20110;-71
2022/12/21 01:52:44;;;;;;;6.30;2.40;;;;;;;2.81;100.00;95797.56;1018237;29;20260;-71
2022/12/21 01:53:38;;;;;;;6.45;3.20;;;;;;;2.76;100.00;95800.03;1022265;29;20019;-68
2022/12/21 01:54:12;;;;;;;5.88;2.67;;;;;;;2.73;100.00;95795.25;1012119;29;20025;-68
2022/12/21 01:54:48;;;;;;;6.05;2.50;;;;;;;2.68;100.00;95795.88;1018368;29;20283;-67
2022/12/21 01:55:18;;;;;;;7.07;2.75;;;;;;;2.67;100.00;95803.88;1025251;28;20392;-69
2022/12/21 01:55:49;;;;;;;5.55;3.28;;;;;;;2.65;100.00;95805.88;1028913;28;20273;-69
2022/12/21 01:56:23;;;;;;;4.15;3.05;;;;;;;2.59;100.00;95797.16;1030528;28;20026;-70
2022/12/21 01:56:55;;;;;;;4.30;2.75;;;;;;;2.59;100.00;95802.34;1027763;28;20349;-70
2022/12/21 01:57:26;;;;;;;4.07;2.40;;;;;;;2.47;100.00;95785.88;1026208;28;20270;-69
2022/12/21 01:57:57;;;;;;;3.63;2.60;;;;;;;2.51;100.00;95794.81;1026374;28;20771;-70
2022/12/21 01:58:28;;;;;;;5.32;2.80;;;;;;;2.52;100.00;95802.38;1018707;29;20276;-69
2022/12/21 01:59:03;;;;;;;6.05;2.80;;;;;;;2.54;100.00;95804.75;1026365;28;20066;-70
2022/12/21 01:59:45;;;;;;;4.50;2.95;;;;;;;2.55;100.00;95796.00;1018488;29;20290;-70
2022/12/21 02:00:16;;;;;;;4.30;2.78;;;;;;;2.59;100.00;95808.31;1019788;29;20263;-72
2022/12/21 02:00:47;;;;;;;4.82;3.00;;;;;;;2.55;100.00;95806.34;1026616;28;20377;-70
2022/12/21 02:01:17;;;;;;;4.95;3.22;;;;;;;2.55;100.00;95807.16;1027969;28;20018;-70
2022/12/21 02:01:48;;;;;;;4.28;2.88;;;;;;;2.53;100.00;95798.00;1022429;28;20087;-70
2022/12/21 02:02:21;;;;;;;4.75;3.13;;;;;;;2.54;100.00;95795.19;1026715;28;20015;-71
2022/12/21 02:02:54;;;;;;;6.55;2.90;;;;;;;2.45;100.00;95777.50;1030185;28;20086;-71
2022/12/21 02:03:33;;;;;;;6.57;3.05;;;;;;;2.50;100.00;95804.38;1021063;29;20259;-70
2022/12/21 02:04:04;;;;;;;6.30;3.15;;;;;;;2.46;100.00;95798.03;1022100;29;20298;-69
2022/12/21 02:04:34;;;;;;;6.50;3.22;;;;;;;2.44;100.00;95792.25;1026424;28;20277;-70
2022/12/21 02:05:33;;;;;;;5.57;3.60;;;;;;;2.47;100.00;95798.81;1026023;28;20105;-70
2022/12/21 02:06:09;;;;;;;8.45;4.68;;;;;;;2.41;100.00;95791.88;1021580;29;20046;-70
2022/12/21 02:06:54;;;;;;;6.53;3.50;;;;;;;2.40;100.00;95795.50;1022885;28;20263;-71
2022/12/21 02:07:25;;;;;;;7.50;3.95;;;;;;;2.40;100.00;95792.91;1022305;29;20290;-70
2022/12/21 02:07:57;;;;;;;9.82;5.45;;;;;;;2.42;100.00;95796.09;1029850;28;20249;-71
2022/12/21 02:08:27;;;;;;;11.82;5.88;;;;;;;2.41;100.00;95803.03;1026051;28;20045;-69
2022/12/21 02:08:58;;;;;;;9.23;5.70;;;;;;;2.38;100.00;95794.91;1032193;28;20987;-69
2022/12/21 02:09:31;;;;;;;11.65;5.10;;;;;;;2.34;100.00;95786.75;1030577;28;20018;-70
2022/12/21 02:10:02;;;;;;;10.05;5.00;;;;;;;2.37;100.00;95794.09;1030154;28;20789;-69
2022/12/21 02:10:32;;;;;;;9.25;4.55;;;;;;;2.34;100.00;95794.53;1028019;28;20277;-70
2022/12/21 02:11:03;;;;;;;10.05;5.68;;;;;;;2.30;100.00;95791.56;1025875;28;20015;-70
2022/12/21 02:11:33;;;;;;;12.73;5.32;;;;;;;2.29;100.00;95779.63;1022555;28;20035;-70
2022/12/21 02:12:05;;;;;;;8.90;5.55;;;;;;;2.28;100.00;95783.22;1026064;28;20026;-68
2022/12/21 02:12:36;;;;;;;11.55;5.53;;;;;;;2.28;100.00;95780.63;1030607;28;20074;-70
2022/12/21 02:13:08;;;;;;;9.65;5.28;;;;;;;2.32;100.00;95781.81;1029919;28;20262;-70
2022/12/21 02:13:40;;;;;;;11.88;5.57;;;;;;;2.36;100.00;95790.72;1026210;28;20552;-69
2022/12/21 02:14:12;;;;;;;10.65;4.90;;;;;;;2.36;100.00;95784.75;1026274;28;20269;-70
2022/12/21 02:14:43;;;;;;;8.70;4.78;;;;;;;2.46;100.00;95790.28;1022883;28;20347;-69
2022/12/21 02:15:14;;;;;;;8.30;4.53;;;;;;;2.38;100.00;95780.16;1025518;28;20254;-70
2022/12/21 02:15:59;;;;;;;8.80;4.85;;;;;;;2.47;100.00;95786.66;1025524;28;20356;-70
2022/12/21 02:16:41;;;;;;;7.15;4.15;;;;;;;2.50;100.00;95783.66;1026392;28;20022;-69
2022/12/21 02:17:58;;;;;;;6.80;3.78;;;;;;;2.65;100.00;95790.31;1026956;28;20305;-69
2022/12/21 02:18:50;;;;;;;6.38;4.32;;;;;;;2.68;100.00;95797.66;1018106;29;20263;-71
2022/12/21 02:19:33;;;;;;;5.88;3.38;;;;;;;2.64;100.00;95794.72;1030143;28;20255;-71
2022/12/21 02:20:18;;;;;;;5.90;3.65;;;;;;;2.64;100.00;95805.06;1033101;28;20245;-71
2022/12/21 02:21:21;;;;;;;6.72;4.25;;;;;;;2.56;100.00;95793.19;1027220;28;20984;-69
2022/12/21 02:21:59;;;;;;;5.63;3.85;;;;;;;2.63;100.00;95807.88;1020424;29;20496;-70
2022/12/21 02:22:35;;;;;;;7.22;4.25;;;;;;;2.64;100.00;95809.47;1025585;28;20827;-69
2022/12/21 02:23:21;;;;;;;9.43;4.20;;;;;;;2.65;100.00;95806.69;1025975;28;20346;-69
2022/12/21 02:24:25;;;;;;;8.10;4.43;;;;;;;2.63;100.00;95802.72;1027001;28;20254;-68
2022/12/21 02:25:08;;;;;;;5.97;4.15;;;;;;;2.65;100.00;95808.44;1034873;28;20280;-70
2022/12/21 02:26:17;;;;;;;7.00;3.95;;;;;;;2.68;100.00;95805.44;1029837;28;20277;-72
2022/12/21 02:27:11;;;;;;;6.15;3.85;;;;;;;2.65;100.00;95805.88;1026750;28;20349;-70
2022/12/21 02:27:41;;;;;;;5.28;3.55;;;;;;;2.64;100.00;95806.88;1026775;28;20273;-70
2022/12/21 02:28:33;;;;;;;5.13;3.65;;;;;;;2.59;100.00;95812.69;1027011;28;20288;-69
2022/12/21 02:29:24;;;;;;;4.90;3.25;;;;;;;2.64;100.00;95804.28;1027429;28;20528;-69
2022/12/21 02:30:08;;;;;;;;;;;;;;;2.61;100.00;95805.50;1031310;28;20269;-69
2022/12/21 02:30:56;;;;;;;6.85;3.72;;;;;;;2.60;100.00;95803.91;1030809;28;20423;-70
2022/12/21 02:31:37;;;;;;;6.85;3.75;;;;;;;2.57;100.00;95794.75;1023070;28;20401;-70
2022/12/21 02:32:33;;;;;;;5.57;3.80;;;;;;;2.44;100.00;95789.66;1022862;28;21005;-70
2022/12/21 02:33:06;;;;;;;5.45;4.13;;;;;;;2.43;100.00;95793.28;1039268;28;20288;-71
2022/12/21 02:33:43;;;;;;;5.90;3.90;;;;;;;2.42;100.00;95796.88;1030812;28;20281;-70
2022/12/21 02:34:25;;;;;;;7.07;4.47;;;;;;;2.43;100.00;95798.44;1027063;28;20353;-71
2022/12/21 02:35:27;;;;;;;9.00;4.63;;;;;;;2.39;100.00;95797.28;1030387;28;20328;-70
2022/12/21 02:36:07;;;;;;;7.47;4.03;;;;;;;2.38;100.00;95798.28;1036771;28;20276;-70
2022/12/21 02:36:55;;;;;;;9.65;4.60;;;;;;;2.35;100.00;95803.91;1039199;28;20736;-72
2022/12/21 02:37:35;;;;;;;8.70;4.63;;;;;;;2.36;100.00;95811.44;1037270;28;20408;-72
2022/12/21 02:38:31;;;;;;;8.38;4.47;;;;;;;2.34;100.00;95807.47;1030849;28;20269;-69